Time;durP1;ratioP1;P1;durP2;ratioP2;P2;SDS_P1;SDS_P2;PMS_P1;PMS_P2;Temp;Humidity;BMP_temperature;BMP_pressure;BME280_temperature;BME280_humidity;BME280_pressure;Samples;Min_cycle;Max_cycle;Signal;HPM_P1;HPM_P2
2022/11/23 00:01:53;;;;;;;19.10;11.98;;;;;;;6.84;100.00;67534.72;5012157;28;20037;-81
2022/11/23 00:04:19;;;;;;;22.20;13.95;;;;;;;6.86;100.00;67536.44;5000625;28;20061;-83
2022/11/23 00:06:44;;;;;;;17.80;11.73;;;;;;;;;;5002721;28;20038;-80
2022/11/23 00:09:10;;;;;;;18.40;12.68;;;;;;;6.87;100.00;67532.25;5016647;28;20046;-81
2022/11/23 00:11:35;;;;;;;22.35;14.57;;;;;;;;;;5005896;28;20065;-82
2022/11/23 00:14:01;;;;;;;19.90;12.88;;;;;;;6.88;100.00;67530.75;4994269;28;20042;-79
2022/11/23 00:16:29;;;;;;;22.08;14.98;;;;;;;6.88;100.00;67538.69;4994874;28;20046;-81
2022/11/23 00:18:57;;;;;;;24.17;15.90;;;;;;;6.88;100.00;67533.97;4993098;28;20042;-80
2022/11/23 00:21:24;;;;;;;24.75;16.75;;;;;;;;;;4990099;28;20042;-81
2022/11/23 00:23:49;;;;;;;27.08;17.45;;;;;;;6.91;100.00;67537.34;4994098;28;20042;-88
2022/11/23 00:26:16;;;;;;;21.88;16.33;;;;;;;6.91;100.00;67542.66;5000906;28;20042;-81
2022/11/23 00:28:42;;;;;;;25.60;17.10;;;;;;;6.93;100.00;67544.91;4993164;28;20108;-83
2022/11/23 00:31:08;;;;;;;26.60;18.73;;;;;;;;;;4995986;28;20125;-81
2022/11/23 00:33:33;;;;;;;25.90;16.35;;;;;;;6.95;100.00;67541.31;4992915;28;20051;-84
2022/11/23 00:36:17;;;;;;;21.70;15.13;;;;;;;6.96;100.00;67547.72;4991514;28;20039;-81
2022/11/23 00:38:43;;;;;;;26.77;18.30;;;;;;;;;;4993445;28;20042;-81
2022/11/23 00:41:10;;;;;;;25.25;16.10;;;;;;;;;;4991621;28;20053;-81
2022/11/23 00:43:35;;;;;;;23.05;16.92;;;;;;;6.97;100.00;67544.13;4990992;28;20633;-80
2022/11/23 00:46:07;;;;;;;25.17;14.82;;;;;;;6.98;100.00;67550.56;4992026;28;20053;-81
2022/11/23 00:48:32;;;;;;;22.42;17.25;;;;;;;;;;4991346;28;20034;-81
2022/11/23 00:50:59;;;;;;;23.00;15.00;;;;;;;6.98;100.00;67544.69;4991464;28;20049;-81
2022/11/23 00:53:24;;;;;;;26.00;15.27;;;;;;;;;;4992987;28;20039;-81
2022/11/23 00:55:51;;;;;;;22.55;16.25;;;;;;;;;;4994509;28;20050;-81
2022/11/23 00:58:16;;;;;;;22.58;14.50;;;;;;;6.98;100.00;67545.25;4995677;28;20047;-81
2022/11/23 01:00:42;;;;;;;23.80;15.52;;;;;;;;;;4996461;28;20112;-81
2022/11/23 01:03:07;;;;;;;22.77;16.42;;;;;;;7.01;100.00;67553.94;4990956;28;20051;-81
2022/11/23 01:05:35;;;;;;;23.10;15.82;;;;;;;;;;4990089;28;20042;-80
2022/11/23 01:08:01;;;;;;;24.38;15.40;;;;;;;7.03;100.00;67550.38;4993861;28;20042;-82
2022/11/23 01:10:28;;;;;;;21.58;14.90;;;;;;;7.03;100.00;67550.38;4991313;28;20192;-81
2022/11/23 01:12:54;;;;;;;26.35;16.08;;;;;;;7.05;100.00;67557.94;4990270;28;20066;-80
2022/11/23 01:15:19;;;;;;;22.45;14.27;;;;;;;;;;4989093;28;20426;-79
2022/11/23 01:17:44;;;;;;;26.90;15.57;;;;;;;7.06;100.00;67553.19;4991587;28;20384;-81
2022/11/23 01:20:10;;;;;;;20.00;12.02;;;;;;;;;;4990447;28;20089;-81
2022/11/23 01:22:35;;;;;;;26.70;15.52;;;;;;;7.08;100.00;67553.38;4990639;28;20050;-80
2022/11/23 01:25:00;;;;;;;23.63;16.27;;;;;;;7.10;100.00;67563.00;5000511;28;20145;-80
2022/11/23 01:27:26;;;;;;;18.63;14.00;;;;;;;7.08;100.00;67555.44;4990559;28;20678;-80
2022/11/23 01:29:51;;;;;;;27.85;15.52;;;;;;;7.08;100.00;67561.31;4991394;28;20042;-83
2022/11/23 01:32:16;;;;;;;21.13;14.13;;;;;;;;;;4990405;28;20125;-82
2022/11/23 01:34:42;;;;;;;23.52;12.93;;;;;;;7.10;100.00;67563.00;4992558;28;20620;-84
2022/11/23 01:37:07;;;;;;;18.90;12.50;;;;;;;7.12;100.00;67559.97;4998798;28;20117;-83
2022/11/23 01:39:32;;;;;;;18.23;11.75;;;;;;;7.11;100.00;67559.41;4990699;28;20077;-83
2022/11/23 01:41:58;;;;;;;18.27;12.43;;;;;;;;;;4991897;28;20038;-82
2022/11/23 01:44:26;;;;;;;21.75;14.73;;;;;;;;;;4986790;28;20062;-81
2022/11/23 01:46:51;;;;;;;24.40;13.70;;;;;;;;;;4994537;28;20486;-81
2022/11/23 01:49:17;;;;;;;20.30;12.55;;;;;;;7.17;100.00;67563.00;4989387;28;20045;-80
2022/11/23 01:51:47;;;;;;;21.98;12.95;;;;;;;7.17;100.00;67563.56;4980798;28;20043;-81
2022/11/23 01:54:20;;;;;;;20.17;10.98;;;;;;;7.19;100.00;67568.47;4988189;28;20047;-81
2022/11/23 01:56:48;;;;;;;20.95;12.05;;;;;;;;;;4985235;28;20092;-81
2022/11/23 01:59:17;;;;;;;20.58;12.30;;;;;;;7.24;100.00;67578.84;5002895;28;20205;-81
2022/11/23 02:01:43;;;;;;;18.50;11.70;;;;;;;7.27;100.00;67576.38;4992889;28;20121;-81
2022/11/23 02:04:13;;;;;;;20.90;11.07;;;;;;;7.27;100.00;67576.94;4990434;28;20246;-83
2022/11/23 02:06:39;;;;;;;18.63;11.40;;;;;;;;;;4991510;28;20062;-85
2022/11/23 02:09:05;;;;;;;19.45;11.80;;;;;;;;;;4993979;28;20042;-84
2022/11/23 02:11:30;;;;;;;15.82;10.07;;;;;;;;;;4991293;28;20085;-81
2022/11/23 02:13:56;;;;;;;23.52;10.90;;;;;;;;;;4992811;28;20060;-80
2022/11/23 02:16:21;;;;;;;21.92;10.32;;;;;;;;;;4991327;28;20054;-84
2022/11/23 02:18:49;;;;;;;18.48;10.63;;;;;;;7.30;100.00;67579.78;4990046;28;20042;-83
2022/11/23 02:21:15;;;;;;;24.47;11.47;;;;;;;7.31;100.00;67580.91;4992238;28;20045;-84
2022/11/23 02:23:40;;;;;;;20.80;10.15;;;;;;;;;;4991402;28;20285;-81
2022/11/23 02:26:10;;;;;;;16.30;9.80;;;;;;;7.30;100.00;67580.34;4989821;28;20375;-81
2022/11/23 02:28:41;;;;;;;17.17;9.77;;;;;;;7.32;100.00;67587.34;4998522;28;20683;-81
2022/11/23 02:31:06;;;;;;;23.33;10.98;;;;;;;7.31;100.00;67586.78;4996515;28;20401;-80
2022/11/23 02:33:32;;;;;;;17.50;10.52;;;;;;;;;;4991494;28;20121;-81
2022/11/23 02:35:59;;;;;;;17.17;8.30;;;;;;;7.32;100.00;67590.56;4990466;28;20068;-81
2022/11/23 02:38:27;;;;;;;19.55;9.15;;;;;;;;;;4989798;28;20053;-79
2022/11/23 02:40:52;;;;;;;17.63;9.32;;;;;;;;;;4988332;28;20509;-79
2022/11/23 02:43:18;;;;;;;17.02;8.13;;;;;;;7.34;100.00;67590.19;4989353;28;20047;-79
2022/11/23 02:45:56;;;;;;;18.88;8.93;;;;;;;7.35;100.00;67586.00;4989745;28;20046;-79
2022/11/23 02:48:22;;;;;;;23.65;11.30;;;;;;;7.34;100.00;67581.66;4991025;28;20128;-79
2022/11/23 02:50:47;;;;;;;15.63;8.32;;;;;;;;;;4992803;28;20661;-80
2022/11/23 02:53:12;;;;;;;13.18;7.82;;;;;;;;;;4992640;28;20038;-79
2022/11/23 02:55:38;;;;;;;17.00;9.65;;;;;;;7.33;100.00;67583.72;4992454;28;20053;-80
2022/11/23 02:58:05;;;;;;;16.08;7.78;;;;;;;7.32;100.00;67582.59;4995772;28;20038;-80
2022/11/23 03:00:32;;;;;;;16.55;8.10;;;;;;;7.33;100.00;67583.16;4990139;28;20061;-80
2022/11/23 03:02:59;;;;;;;17.30;6.60;;;;;;;7.33;100.00;67588.47;4991122;28;20038;-80
2022/11/23 03:05:25;;;;;;;14.63;6.85;;;;;;;7.33;100.00;67589.03;4989898;28;20046;-81
2022/11/23 03:07:51;;;;;;;13.68;7.85;;;;;;;7.34;100.00;67584.88;5006982;28;20112;-81
2022/11/23 03:10:17;;;;;;;19.92;7.55;;;;;;;7.35;100.00;67591.31;4992706;28;20045;-81
2022/11/23 03:12:42;;;;;;;12.13;7.45;;;;;;;7.33;100.00;67583.72;4989659;28;20039;-79
2022/11/23 03:15:08;;;;;;;17.15;7.85;;;;;;;7.33;100.00;67581.09;4990308;28;20159;-80
2022/11/23 03:17:34;;;;;;;14.93;6.68;;;;;;;7.34;100.00;67584.31;4993709;28;20038;-79
2022/11/23 03:19:59;;;;;;;15.18;6.72;;;;;;;7.34;100.00;67584.88;4984344;28;20388;-80
2022/11/23 03:22:24;;;;;;;15.05;7.75;;;;;;;7.34;100.00;67590.19;5000844;28;20604;-80
2022/11/23 03:24:50;;;;;;;13.90;6.03;;;;;;;7.35;100.00;67593.94;4998525;28;20069;-81
2022/11/23 03:27:15;;;;;;;17.45;6.55;;;;;;;7.34;100.00;67584.88;4993881;28;20418;-82
2022/11/23 03:29:41;;;;;;;15.70;5.80;;;;;;;7.35;100.00;67586.00;4992658;28;20061;-80
2022/11/23 03:32:06;;;;;;;16.35;6.38;;;;;;;;;;4993820;28;20034;-84
2022/11/23 03:34:31;;;;;;;13.50;5.97;;;;;;;7.35;100.00;67586.00;4994520;28;20425;-80
2022/11/23 03:36:57;;;;;;;15.02;6.30;;;;;;;7.35;100.00;67583.34;5004023;28;20042;-81
2022/11/23 03:39:28;;;;;;;17.42;5.40;;;;;;;7.34;100.00;67584.31;4994786;28;20093;-79
2022/11/23 03:41:53;;;;;;;11.65;5.30;;;;;;;7.34;100.00;67579.03;4995288;28;20696;-85
2022/11/23 03:44:18;;;;;;;14.48;5.50;;;;;;;;;;4985586;28;20122;-81
2022/11/23 03:46:44;;;;;;;12.73;6.00;;;;;;;;;;4992255;28;20058;-82
2022/11/23 03:49:09;;;;;;;13.00;5.97;;;;;;;7.33;100.00;67583.16;4993006;28;20043;-80
2022/11/23 03:51:35;;;;;;;14.35;5.93;;;;;;;;;;4992135;28;20501;-81
2022/11/23 03:54:00;;;;;;;20.98;5.38;;;;;;;7.35;100.00;67585.44;4992000;28;20042;-81
2022/11/23 03:56:26;;;;;;;14.10;5.70;;;;;;;7.35;100.00;67585.44;4990458;28;20057;-80
2022/11/23 03:58:51;;;;;;;13.15;4.53;;;;;;;7.35;100.00;67590.72;4982810;28;20056;-81
2022/11/23 04:01:16;;;;;;;12.38;5.72;;;;;;;7.33;100.00;67589.03;5001008;28;20046;-81
2022/11/23 04:03:42;;;;;;;12.88;4.85;;;;;;;;;;4992578;28;20046;-80
2022/11/23 04:06:07;;;;;;;12.52;4.75;;;;;;;;;;4992531;28;20048;-80
2022/11/23 04:08:32;;;;;;;12.77;5.28;;;;;;;7.34;100.00;67584.31;4995249;28;20085;-80
2022/11/23 04:10:58;;;;;;;9.68;4.72;;;;;;;;;;4992659;28;20045;-80
2022/11/23 04:13:23;;;;;;;14.85;6.07;;;;;;;7.35;100.00;67583.34;4991044;28;20453;-81
2022/11/23 04:15:48;;;;;;;16.20;5.68;;;;;;;7.36;100.00;67587.13;4989789;28;20129;-80
2022/11/23 04:18:14;;;;;;;14.55;4.88;;;;;;;7.37;100.00;67585.63;4990668;28;20095;-79
2022/11/23 04:20:39;;;;;;;12.85;6.00;;;;;;;7.39;100.00;67595.25;4989691;28;20406;-80
2022/11/23 04:23:05;;;;;;;11.15;5.43;;;;;;;7.39;100.00;67589.97;4991735;28;20101;-81
2022/11/23 04:25:30;;;;;;;11.82;4.93;;;;;;;7.37;100.00;67588.28;4990884;28;20093;-80
2022/11/23 04:27:56;;;;;;;13.45;4.97;;;;;;;;;;4987999;28;20391;-81
2022/11/23 04:30:21;;;;;;;12.00;4.90;;;;;;;;;;4992204;28;20042;-80
2022/11/23 04:32:46;;;;;;;11.85;4.40;;;;;;;7.37;100.00;67585.63;4991952;28;20042;-81
2022/11/23 04:35:12;;;;;;;11.75;4.85;;;;;;;7.35;100.00;67586.00;4991368;28;20096;-80
2022/11/23 04:37:37;;;;;;;12.30;4.82;;;;;;;7.35;100.00;67585.44;4993612;28;20492;-79
2022/11/23 04:40:03;;;;;;;16.42;4.20;;;;;;;7.36;100.00;67587.13;4992385;28;20045;-79
2022/11/23 04:42:29;;;;;;;12.27;4.72;;;;;;;7.36;100.00;67584.47;4989708;28;20462;-79
2022/11/23 04:44:56;;;;;;;12.18;4.47;;;;;;;7.39;100.00;67590.53;4998010;28;20092;-80
2022/11/23 04:47:22;;;;;;;10.13;4.43;;;;;;;7.38;100.00;67586.75;4987344;28;20109;-80
2022/11/23 04:49:47;;;;;;;11.30;4.53;;;;;;;7.38;100.00;67589.41;4990133;28;20069;-81
2022/11/23 04:52:12;;;;;;;9.07;4.18;;;;;;;7.38;100.00;67586.19;4984458;28;20129;-79
2022/11/23 04:54:38;;;;;;;11.40;4.50;;;;;;;7.39;100.00;67587.91;4990400;28;20034;-79
2022/11/23 04:57:03;;;;;;;16.98;5.07;;;;;;;7.37;100.00;67588.28;4991217;28;20394;-79
2022/11/23 04:59:28;;;;;;;10.82;4.22;;;;;;;7.39;100.00;67589.97;4991424;28;20058;-81
2022/11/23 05:01:57;;;;;;;12.70;4.63;;;;;;;7.39;100.00;67587.91;4991391;28;20038;-81
2022/11/23 05:04:22;;;;;;;12.52;3.97;;;;;;;7.39;100.00;67590.53;4991282;28;20046;-81
2022/11/23 05:06:48;;;;;;;14.48;4.72;;;;;;;7.38;100.00;67588.84;4995927;28;20630;-81
2022/11/23 05:09:13;;;;;;;9.88;4.60;;;;;;;7.38;100.00;67588.84;4992697;28;20046;-81
2022/11/23 05:11:39;;;;;;;12.15;5.65;;;;;;;7.38;100.00;67594.13;4991032;28;20041;-82
2022/11/23 05:14:04;;;;;;;13.10;5.15;;;;;;;7.37;100.00;67587.72;4992140;28;20038;-80
2022/11/23 05:16:29;;;;;;;12.30;5.13;;;;;;;7.38;100.00;67584.09;4991461;28;20096;-81
2022/11/23 05:18:55;;;;;;;14.95;6.07;;;;;;;;;;4992651;28;20038;-80
2022/11/23 05:21:20;;;;;;;15.57;5.65;;;;;;;7.39;100.00;67587.31;4991896;28;20098;-85
2022/11/23 05:23:45;;;;;;;12.50;5.03;;;;;;;7.37;100.00;67588.28;4992391;28;20066;-82
2022/11/23 05:26:14;;;;;;;10.27;5.00;;;;;;;7.37;100.00;67593.56;4990989;28;20108;-83
2022/11/23 05:28:39;;;;;;;14.40;4.75;;;;;;;7.37;100.00;67585.63;5006056;28;20510;-83
2022/11/23 05:31:05;;;;;;;11.65;4.57;;;;;;;7.39;100.00;67587.31;4991869;28;20053;-79
2022/11/23 05:33:30;;;;;;;16.25;5.68;;;;;;;7.37;100.00;67585.63;4991794;28;20046;-80
2022/11/23 05:35:56;;;;;;;12.27;4.68;;;;;;;;;;4988387;28;20062;-82
2022/11/23 05:38:21;;;;;;;9.82;4.60;;;;;;;;;;5010100;28;20449;-80
2022/11/23 05:40:46;;;;;;;13.88;3.95;;;;;;;7.42;100.00;67593.94;5003925;28;20049;-82
2022/11/23 05:43:12;;;;;;;13.60;4.85;;;;;;;7.45;100.00;67596.75;4991195;28;20034;-82
2022/11/23 05:45:37;;;;;;;15.85;5.43;;;;;;;;;;4998840;28;20045;-80
2022/11/23 05:48:03;;;;;;;14.85;5.30;;;;;;;7.46;100.00;67608.47;4992960;28;20045;-81
2022/11/23 05:50:29;;;;;;;12.20;5.07;;;;;;;7.45;100.00;67602.63;4991232;28;20073;-82
2022/11/23 05:52:58;;;;;;;16.17;5.53;;;;;;;7.45;100.00;67602.63;4991473;28;20058;-83
2022/11/23 05:55:24;;;;;;;7.88;4.22;;;;;;;;;;4990505;28;20057;-81
2022/11/23 05:57:49;;;;;;;14.50;4.57;;;;;;;;;;4992533;28;20043;-81
2022/11/23 06:00:14;;;;;;;17.67;5.20;;;;;;;;;;4993034;28;20454;-84
2022/11/23 06:02:40;;;;;;;12.82;4.65;;;;;;;;;;4995498;28;20046;-82
2022/11/23 06:05:06;;;;;;;13.38;4.70;;;;;;;7.40;100.00;67591.66;4989752;28;20042;-83
2022/11/23 06:07:32;;;;;;;13.77;5.22;;;;;;;7.39;100.00;67590.53;4989869;28;20049;-84
2022/11/23 06:09:57;;;;;;;13.30;5.53;;;;;;;7.40;100.00;67596.41;4991763;28;20387;-81
2022/11/23 06:12:23;;;;;;;14.02;5.72;;;;;;;7.39;100.00;67589.97;4990546;28;20046;-84
2022/11/23 06:14:48;;;;;;;14.00;5.05;;;;;;;;;;4984921;28;20691;-81
2022/11/23 06:17:13;;;;;;;12.15;4.80;;;;;;;7.34;100.00;67584.88;4986855;28;20070;-84
2022/11/23 06:19:39;;;;;;;14.98;5.38;;;;;;;7.34;100.00;67584.88;4995035;28;20061;-81
2022/11/23 06:22:04;;;;;;;14.07;5.28;;;;;;;7.32;100.00;67582.59;4996607;28;20069;-82
2022/11/23 06:24:30;;;;;;;14.93;5.25;;;;;;;;;;4994710;28;20038;-82
2022/11/23 06:26:55;;;;;;;14.73;5.13;;;;;;;;;;4997598;28;20049;-83
2022/11/23 06:29:21;;;;;;;19.67;5.65;;;;;;;7.33;100.00;67580.53;4995960;28;20042;-81
2022/11/23 06:31:46;;;;;;;10.60;4.32;;;;;;;7.32;100.00;67582.59;4992950;28;20054;-81
2022/11/23 06:34:12;;;;;;;10.85;4.47;;;;;;;7.33;100.00;67583.72;4993637;28;20092;-83
2022/11/23 06:36:38;;;;;;;17.77;5.00;;;;;;;7.33;100.00;67583.72;4991430;28;20124;-80
2022/11/23 06:39:04;;;;;;;13.05;4.35;;;;;;;7.35;100.00;67582.78;4990561;28;20049;-80
2022/11/23 06:41:29;;;;;;;15.27;5.38;;;;;;;7.33;100.00;67583.72;4993852;28;20046;-81
2022/11/23 06:43:54;;;;;;;15.52;4.25;;;;;;;;;;4991955;28;20138;-80
2022/11/23 06:46:19;;;;;;;15.13;4.65;;;;;;;7.34;100.00;67590.19;4991292;28;20057;-80
2022/11/23 06:48:46;;;;;;;19.40;5.55;;;;;;;7.35;100.00;67585.44;4990782;28;20043;-80
2022/11/23 06:51:12;;;;;;;12.75;4.28;;;;;;;7.34;100.00;67584.31;4984254;28;20068;-80
2022/11/23 06:53:37;;;;;;;13.88;4.93;;;;;;;7.34;100.00;67584.88;4983507;28;20569;-80
2022/11/23 06:56:03;;;;;;;13.10;5.13;;;;;;;7.34;100.00;67590.19;4991051;28;20042;-81
2022/11/23 06:58:28;;;;;;;15.43;5.72;;;;;;;7.34;100.00;67584.88;4998260;28;20177;-81
2022/11/23 07:00:58;;;;;;;14.43;5.20;;;;;;;;;;4994453;28;20038;-80
2022/11/23 07:03:24;;;;;;;13.98;5.35;;;;;;;7.33;100.00;67581.09;4988024;28;20520;-81
2022/11/23 07:05:50;;;;;;;15.85;5.88;;;;;;;7.32;100.00;67587.91;4990305;28;20204;-80
2022/11/23 07:08:15;;;;;;;17.00;6.35;;;;;;;7.31;100.00;67581.47;4989387;28;20121;-81
2022/11/23 07:10:41;;;;;;;24.70;7.43;;;;;;;7.32;100.00;67582.59;4990384;28;20117;-81
2022/11/23 07:13:07;;;;;;;13.10;5.95;;;;;;;;;;4989043;28;20101;-81
2022/11/23 07:15:32;;;;;;;20.88;6.97;;;;;;;;;;4988092;28;20047;-81
2022/11/23 07:17:58;;;;;;;21.63;6.70;;;;;;;7.31;100.00;67581.47;4989655;28;20104;-81
2022/11/23 07:20:23;;;;;;;13.80;6.18;;;;;;;;;;4988397;28;20042;-81
2022/11/23 07:22:58;;;;;;;20.27;6.53;;;;;;;;;;4987897;28;20506;-81
2022/11/23 07:25:23;;;;;;;17.60;5.78;;;;;;;;;;5000461;28;20629;-81
2022/11/23 07:27:53;;;;;;;14.75;6.35;;;;;;;;;;4997206;28;20126;-81
2022/11/23 07:30:18;;;;;;;15.07;6.10;;;;;;;7.33;100.00;67580.53;4986558;28;20038;-80
2022/11/23 07:32:44;;;;;;;15.85;5.22;;;;;;;7.32;100.00;67582.59;5004477;28;20173;-81
2022/11/23 07:35:10;;;;;;;18.33;4.90;;;;;;;7.34;100.00;67584.31;4996070;28;20038;-80
2022/11/23 07:37:35;;;;;;;16.00;5.47;;;;;;;7.33;100.00;67583.16;4999978;28;20405;-81
2022/11/23 07:40:00;;;;;;;15.75;5.53;;;;;;;;;;4988892;28;20062;-80
2022/11/23 07:42:26;;;;;;;15.70;5.72;;;;;;;7.34;100.00;67584.31;4988287;28;20050;-80
2022/11/23 07:44:51;;;;;;;16.48;5.43;;;;;;;7.33;100.00;67583.72;4986075;28;20334;-81
2022/11/23 07:47:16;;;;;;;14.48;5.15;;;;;;;;;;4999292;28;20045;-81
2022/11/23 07:49:41;;;;;;;16.05;4.82;;;;;;;7.34;100.00;67584.88;4991500;28;20043;-80
2022/11/23 07:52:07;;;;;;;19.05;5.03;;;;;;;7.36;100.00;67584.47;4987242;28;20034;-81
2022/11/23 07:54:32;;;;;;;17.13;5.85;;;;;;;7.35;100.00;67586.00;4988906;28;20122;-81
2022/11/23 07:56:57;;;;;;;14.15;5.30;;;;;;;;;;4996712;28;20046;-80
2022/11/23 07:59:23;;;;;;;20.10;5.78;;;;;;;7.38;100.00;67594.13;4995108;28;20038;-81
2022/11/23 08:01:48;;;;;;;14.50;5.22;;;;;;;7.40;100.00;67591.09;4991338;28;20039;-81
2022/11/23 08:04:14;;;;;;;15.27;4.50;;;;;;;7.40;100.00;67591.66;4993178;28;20062;-81
2022/11/23 08:06:39;;;;;;;13.85;5.10;;;;;;;;;;4991490;28;20038;-81
2022/11/23 08:09:04;;;;;;;17.77;5.57;;;;;;;7.41;100.00;67590.13;4992608;28;20114;-81
2022/11/23 08:11:29;;;;;;;22.00;5.47;;;;;;;7.42;100.00;67598.66;4993799;28;20042;-81
2022/11/23 08:13:55;;;;;;;14.15;5.13;;;;;;;7.44;100.00;67601.47;4991582;28;20121;-81
2022/11/23 08:16:20;;;;;;;16.23;5.80;;;;;;;7.47;100.00;67604.88;4991195;28;20120;-80
2022/11/23 08:18:46;;;;;;;11.95;4.45;;;;;;;7.48;100.00;67600.16;4993744;28;20049;-81
2022/11/23 08:21:11;;;;;;;15.95;4.50;;;;;;;7.49;100.00;67600.72;4994199;28;20125;-81
2022/11/23 08:23:39;;;;;;;17.08;5.82;;;;;;;;;;4994196;28;20437;-81
2022/11/23 08:26:04;;;;;;;17.73;4.57;;;;;;;7.50;100.00;67601.84;5009015;28;20042;-81
2022/11/23 08:28:30;;;;;;;10.88;3.78;;;;;;;7.50;100.00;67607.16;4992613;28;20053;-81
2022/11/23 08:30:55;;;;;;;12.70;4.10;;;;;;;;;;4988573;28;20050;-81
2022/11/23 08:33:20;;;;;;;15.57;5.18;;;;;;;7.52;100.00;67601.47;4992787;28;20046;-81
2022/11/23 08:35:46;;;;;;;15.85;5.65;;;;;;;7.51;100.00;67602.97;4991972;28;20049;-81
2022/11/23 08:38:11;;;;;;;21.20;6.90;;;;;;;7.52;100.00;67604.13;4992354;28;20042;-81
2022/11/23 08:40:37;;;;;;;18.15;7.93;;;;;;;7.53;100.00;67603.16;4989470;28;20129;-82
2022/11/23 08:43:04;;;;;;;16.70;7.40;;;;;;;7.56;100.00;67616.59;4991640;28;20046;-81
2022/11/23 08:45:29;;;;;;;15.23;5.60;;;;;;;;;;4988887;28;20125;-81
2022/11/23 08:47:59;;;;;;;15.30;4.95;;;;;;;7.57;100.00;67609.78;4992254;28;20054;-82
2022/11/23 08:50:25;;;;;;;14.70;4.90;;;;;;;7.57;100.00;67615.06;4997276;28;20038;-80
2022/11/23 08:52:54;;;;;;;16.17;5.45;;;;;;;;;;4995563;28;20053;-83
2022/11/23 08:55:19;;;;;;;;;;;;;;;7.53;100.00;67605.81;4982863;28;20548;-83
2022/11/23 08:57:45;;;;;;;18.17;5.43;;;;;;;;;;4986726;28;20377;-81
2022/11/23 09:00:11;;;;;;;20.52;5.78;;;;;;;7.43;100.00;67600.34;4999595;28;20169;-83
2022/11/23 09:02:36;;;;;;;20.52;6.20;;;;;;;7.45;100.00;67594.69;4999997;28;20119;-82
2022/11/23 09:05:01;;;;;;;20.27;6.55;;;;;;;;;;4996424;28;20054;-83
2022/11/23 09:07:27;;;;;;;17.75;5.70;;;;;;;7.53;100.00;67605.25;4996256;28;20483;-82
2022/11/23 09:09:52;;;;;;;21.73;6.28;;;;;;;7.59;100.00;67612.03;4995858;28;20042;-82
2022/11/23 09:12:17;;;;;;;20.27;6.30;;;;;;;7.64;100.00;67625.63;4996350;28;20062;-83
2022/11/23 09:14:43;;;;;;;21.02;5.97;;;;;;;;;;4996941;28;20494;-83
2022/11/23 09:17:08;;;;;;;14.20;4.45;;;;;;;7.69;100.00;67628.66;5008199;28;20063;-82
2022/11/23 09:19:33;;;;;;;15.85;5.18;;;;;;;;;;4995781;28;20122;-84
2022/11/23 09:21:59;;;;;;;12.98;4.53;;;;;;;7.78;100.00;67633.53;4997244;28;20106;-80
2022/11/23 09:24:26;;;;;;;18.55;5.38;;;;;;;7.83;100.00;67639.22;5012980;28;20061;-83
2022/11/23 09:26:52;;;;;;;17.60;4.80;;;;;;;7.91;100.00;67648.28;4996869;28;20049;-83
2022/11/23 09:29:17;;;;;;;12.30;4.63;;;;;;;7.93;100.00;67649.97;4999828;28;20042;-84
2022/11/23 09:31:45;;;;;;;19.23;4.43;;;;;;;8.00;100.00;67657.31;4997187;28;20105;-81
2022/11/23 09:34:13;;;;;;;13.75;4.10;;;;;;;8.03;100.00;67660.72;4990566;28;20127;-81
2022/11/23 09:36:39;;;;;;;15.38;5.22;;;;;;;8.04;100.00;67661.84;4995607;28;20065;-81
2022/11/23 09:39:04;;;;;;;12.07;3.95;;;;;;;8.06;100.00;67664.13;4992222;28;20495;-81
2022/11/23 09:41:48;;;;;;;14.30;3.80;;;;;;;;;;4998085;28;20484;-81
2022/11/23 09:44:20;;;;;;;7.40;3.08;;;;;;;;;;4991771;28;20104;-82
2022/11/23 09:46:45;;;;;;;9.50;3.10;;;;;;;8.22;100.00;67679.00;4998932;28;20054;-81
2022/11/23 09:49:16;;;;;;;14.98;3.30;;;;;;;8.29;100.00;67694.91;4997886;28;20050;-81
2022/11/23 09:51:43;;;;;;;13.02;3.25;;;;;;;8.36;100.00;67698.09;4998344;28;20105;-81
2022/11/23 09:54:36;;;;;;;11.95;3.50;;;;;;;8.45;100.00;67705.06;4993074;28;20031;-81
2022/11/23 09:57:03;;;;;;;9.02;2.70;;;;;;;;;;4985943;28;20046;-82
2022/11/23 09:59:28;;;;;;;11.60;2.95;;;;;;;;;;4989138;28;20791;-81
2022/11/23 10:01:53;;;;;;;6.83;2.33;;;;;;;;;;4989842;28;20050;-81
2022/11/23 10:04:19;;;;;;;8.60;2.75;;;;;;;8.64;100.00;67728.69;4988436;28;20356;-81
2022/11/23 10:06:56;;;;;;;13.20;3.05;;;;;;;8.74;100.00;67740.00;4992896;28;20433;-82
2022/11/23 10:09:53;;;;;;;9.82;2.72;;;;;;;8.77;100.00;67743.41;4987137;28;20078;-82
2022/11/23 10:12:46;;;;;;;8.13;2.22;;;;;;;8.82;100.00;67749.09;4991463;28;20053;-81
2022/11/23 10:15:25;;;;;;;9.25;2.20;;;;;;;8.88;99.94;67755.31;4990351;28;20413;-82
2022/11/23 10:18:00;;;;;;;14.25;2.00;;;;;;;8.89;96.55;67755.88;4990462;28;20042;-81
2022/11/23 10:21:16;;;;;;;8.15;2.53;;;;;;;9.03;97.96;67769.09;4991835;28;20044;-82
2022/11/23 10:23:51;;;;;;;9.57;2.22;;;;;;;;;;4977317;28;20049;-81
2022/11/23 10:26:19;;;;;;;8.70;2.13;;;;;;;9.08;94.57;67777.41;4972470;28;20054;-81
2022/11/23 10:28:46;;;;;;;9.52;2.22;;;;;;;9.12;93.56;67781.38;5006288;28;20042;-82
2022/11/23 10:31:20;;;;;;;5.70;1.80;;;;;;;9.15;92.84;67782.69;4991856;28;20146;-81
2022/11/23 10:33:54;;;;;;;9.80;1.98;;;;;;;9.16;92.05;67786.47;4989778;28;20049;-80
2022/11/23 10:36:19;;;;;;;7.88;1.92;;;;;;;;;;4989729;28;20046;-81
2022/11/23 10:38:49;;;;;;;12.70;2.47;;;;;;;9.20;91.01;67795.75;4989828;28;20042;-81
2022/11/23 10:41:15;;;;;;;10.65;2.63;;;;;;;9.24;90.44;67795.56;4990452;28;20043;-81
2022/11/23 10:44:02;;;;;;;6.88;1.63;;;;;;;9.32;91.44;67803.47;4989040;28;20060;-82
2022/11/23 10:46:38;;;;;;;8.95;2.20;;;;;;;9.33;89.70;67805.19;4978433;28;20050;-81
2022/11/23 10:49:16;;;;;;;9.07;2.10;;;;;;;;;;4974133;28;20133;-81
2022/11/23 10:52:24;;;;;;;9.13;2.10;;;;;;;9.38;88.90;67815.59;4991393;28;20180;-81
2022/11/23 10:54:55;;;;;;;7.70;1.92;;;;;;;9.38;87.92;67810.88;4988652;28;20043;-81
2022/11/23 10:57:20;;;;;;;9.75;1.83;;;;;;;9.37;85.54;67809.16;4996341;28;20053;-81
2022/11/23 10:59:58;;;;;;;8.98;1.95;;;;;;;9.41;84.99;67811.59;4988195;28;20054;-81
2022/11/23 11:02:23;;;;;;;11.68;2.17;;;;;;;;;;4989451;28;20558;-81
2022/11/23 11:04:50;;;;;;;10.40;2.10;;;;;;;9.45;84.40;67818.78;4988911;28;20181;-81
2022/11/23 11:07:22;;;;;;;10.95;1.98;;;;;;;;;;4999864;28;20505;-81
2022/11/23 11:09:51;;;;;;;11.95;2.63;;;;;;;;;;5008231;28;20594;-81
2022/11/23 11:12:17;;;;;;;8.20;2.17;;;;;;;;;;4993831;28;20042;-82
2022/11/23 11:15:08;;;;;;;8.50;2.50;;;;;;;9.70;86.03;67846.00;4991909;28;20085;-81
2022/11/23 11:17:34;;;;;;;9.32;1.98;;;;;;;9.78;85.79;67851.84;4991791;28;20077;-81
2022/11/23 11:20:20;;;;;;;11.48;2.20;;;;;;;9.74;84.28;67849.97;4990576;28;20111;-81
2022/11/23 11:22:46;;;;;;;7.18;1.55;;;;;;;9.73;82.84;67846.75;4991490;28;20038;-82
2022/11/23 11:25:29;;;;;;;7.57;1.70;;;;;;;9.75;83.20;67851.66;4990407;28;20460;-82
2022/11/23 11:27:55;;;;;;;9.77;2.70;;;;;;;9.86;83.99;67864.13;4990279;28;20038;-81
2022/11/23 11:30:28;;;;;;;8.02;2.50;;;;;;;9.93;84.49;67876.84;4986437;28;20065;-81
2022/11/23 11:33:13;;;;;;;8.10;2.10;;;;;;;9.98;83.36;67882.50;4990216;28;20045;-81
2022/11/23 11:35:42;;;;;;;9.70;3.40;;;;;;;9.99;82.25;67875.66;4990441;28;20038;-82
2022/11/23 11:38:18;;;;;;;11.00;2.15;;;;;;;10.06;82.97;67886.25;4999348;28;20038;-82
2022/11/23 11:40:50;;;;;;;11.43;2.97;;;;;;;;;;5007184;28;20038;-83
2022/11/23 11:43:16;;;;;;;11.75;3.05;;;;;;;10.14;82.34;67892.09;4994251;28;20035;-82
2022/11/23 11:45:46;;;;;;;10.75;2.97;;;;;;;10.16;82.15;67897.59;4992558;28;20050;-82
2022/11/23 11:48:44;;;;;;;9.93;2.70;;;;;;;10.20;80.86;67906.31;4990780;28;20061;-81
2022/11/23 11:51:16;;;;;;;7.88;2.20;;;;;;;10.23;80.98;67901.75;4988974;28;20038;-81
2022/11/23 11:53:48;;;;;;;10.80;3.08;;;;;;;10.24;81.68;67903.47;4986150;28;20046;-82
2022/11/23 11:56:41;;;;;;;10.57;2.95;;;;;;;10.28;79.53;67908.00;4991392;28;20041;-82
2022/11/23 11:59:19;;;;;;;9.27;2.20;;;;;;;10.28;79.15;67910.66;4977453;28;20065;-81
2022/11/23 12:02:14;;;;;;;9.33;2.17;;;;;;;10.31;79.14;67913.50;4993369;28;20112;-82
2022/11/23 12:05:16;;;;;;;9.23;2.60;;;;;;;10.42;80.23;67923.34;4993454;28;20045;-82
2022/11/23 12:07:59;;;;;;;9.82;2.15;;;;;;;10.47;79.61;67931.66;4996035;28;20093;-82
2022/11/23 12:10:28;;;;;;;12.20;2.92;;;;;;;;;;4991002;28;20049;-81
2022/11/23 12:12:55;;;;;;;9.25;2.20;;;;;;;;;;4992849;28;20387;-82